sensor_id;sensor_type;location;lat;lon;timestamp;pressure;altitude;pressure_sealevel;temperature;humidity
29383;BME280;16365;51.598;7.668;2022-09-17T00:00:32;100403.22;;;17.10;50.88
29383;BME280;16365;51.598;7.668;2022-09-17T00:02:58;100415.22;;;17.11;51.06
29383;BME280;16365;51.598;7.668;2022-09-17T00:05:24;100416.44;;;17.10;51.32
29383;BME280;16365;51.598;7.668;2022-09-17T00:07:51;100413.56;;;17.06;51.33
29383;BME280;16365;51.598;7.668;2022-09-17T00:10:19;100412.41;;;17.07;51.43
29383;BME280;16365;51.598;7.668;2022-09-17T00:12:46;100410.75;;;17.06;51.63
29383;BME280;16365;51.598;7.668;2022-09-17T00:15:12;100412.75;;;17.06;51.25
29383;BME280;16365;51.598;7.668;2022-09-17T00:17:39;100415.56;;;17.06;51.53
29383;BME280;16365;51.598;7.668;2022-09-17T00:20:07;100420.38;;;17.05;51.38
29383;BME280;16365;51.598;7.668;2022-09-17T00:22:37;100419.16;;;17.06;51.70
29383;BME280;16365;51.598;7.668;2022-09-17T00:25:06;100426.78;;;17.06;51.54
29383;BME280;16365;51.598;7.668;2022-09-17T00:27:33;100427.56;;;17.06;51.54
29383;BME280;16365;51.598;7.668;2022-09-17T00:30:00;100418.81;;;17.08;51.68
29383;BME280;16365;51.598;7.668;2022-09-17T00:32:26;100421.22;;;17.09;51.85
29383;BME280;16365;51.598;7.668;2022-09-17T00:34:52;100424.03;;;17.09;51.49
29383;BME280;16365;51.598;7.668;2022-09-17T00:37:19;100420.41;;;17.09;50.87
29383;BME280;16365;51.598;7.668;2022-09-17T00:39:45;100427.22;;;17.08;51.07
29383;BME280;16365;51.598;7.668;2022-09-17T00:42:13;100430.75;;;17.05;51.09
29383;BME280;16365;51.598;7.668;2022-09-17T00:44:52;100427.09;;;17.01;51.99
29383;BME280;16365;51.598;7.668;2022-09-17T00:47:23;100429.91;;;17.01;51.49
29383;BME280;16365;51.598;7.668;2022-09-17T00:49:54;100439.88;;;16.98;52.02
29383;BME280;16365;51.598;7.668;2022-09-17T00:52:26;100433.47;;;16.98;51.89
29383;BME280;16365;51.598;7.668;2022-09-17T00:55:00;100441.44;;;16.95;52.16
29383;BME280;16365;51.598;7.668;2022-09-17T00:57:29;100429.03;;;16.96;51.51
29383;BME280;16365;51.598;7.668;2022-09-17T00:59:56;100428.22;;;16.96;51.35
29383;BME280;16365;51.598;7.668;2022-09-17T01:02:24;100439.03;;;16.94;51.55
29383;BME280;16365;51.598;7.668;2022-09-17T01:04:50;100446.63;;;16.93;51.50
29383;BME280;16365;51.598;7.668;2022-09-17T01:21:05;100450.47;;;16.85;52.11
29383;BME280;16365;51.598;7.668;2022-09-17T01:24:08;100445.28;;;16.84;52.19
29383;BME280;16365;51.598;7.668;2022-09-17T01:27:03;100443.28;;;16.84;51.70
29383;BME280;16365;51.598;7.668;2022-09-17T01:30:05;100438.81;;;16.80;52.26
29383;BME280;16365;51.598;7.668;2022-09-17T01:41:06;100447.91;;;16.73;52.46
29383;BME280;16365;51.598;7.668;2022-09-17T01:43:51;100450.22;;;16.71;52.71
29383;BME280;16365;51.598;7.668;2022-09-17T01:46:39;100454.22;;;16.70;52.53
29383;BME280;16365;51.598;7.668;2022-09-17T01:49:09;100455.84;;;16.71;51.63
29383;BME280;16365;51.598;7.668;2022-09-17T01:51:40;100457.03;;;16.70;51.75
29383;BME280;16365;51.598;7.668;2022-09-17T01:54:29;100451.28;;;16.63;52.30
29383;BME280;16365;51.598;7.668;2022-09-17T01:57:18;100459.66;;;16.59;52.25
29383;BME280;16365;51.598;7.668;2022-09-17T01:59:52;100460.81;;;16.58;51.84
29383;BME280;16365;51.598;7.668;2022-09-17T02:02:34;100466.72;;;16.53;52.12
29383;BME280;16365;51.598;7.668;2022-09-17T02:05:16;100466.31;;;16.51;51.74
29383;BME280;16365;51.598;7.668;2022-09-17T02:07:49;100471.03;;;16.47;52.23
29383;BME280;16365;51.598;7.668;2022-09-17T02:10:21;100464.22;;;16.44;52.29
29383;BME280;16365;51.598;7.668;2022-09-17T02:12:54;100471.34;;;16.42;52.14
29383;BME280;16365;51.598;7.668;2022-09-17T02:15:24;100474.53;;;16.40;52.27
29383;BME280;16365;51.598;7.668;2022-09-17T02:17:58;100464.06;;;16.37;52.71
29383;BME280;16365;51.598;7.668;2022-09-17T02:20:40;100471.25;;;16.35;52.73
29383;BME280;16365;51.598;7.668;2022-09-17T02:23:14;100470.44;;;16.34;52.84
29383;BME280;16365;51.598;7.668;2022-09-17T02:25:52;100465.19;;;16.33;53.05
29383;BME280;16365;51.598;7.668;2022-09-17T02:28:27;100460.41;;;16.33;52.58
29383;BME280;16365;51.598;7.668;2022-09-17T02:30:56;100459.25;;;16.34;52.15
29383;BME280;16365;51.598;7.668;2022-09-17T02:33:23;100464.00;;;16.34;52.38
29383;BME280;16365;51.598;7.668;2022-09-17T02:35:51;100462.84;;;16.35;52.36
29383;BME280;16365;51.598;7.668;2022-09-17T02:38:24;100471.25;;;16.35;52.70
29383;BME280;16365;51.598;7.668;2022-09-17T02:40:57;100471.25;;;16.35;52.50
29383;BME280;16365;51.598;7.668;2022-09-17T02:43:37;100465.66;;;16.35;52.93
29383;BME280;16365;51.598;7.668;2022-09-17T02:51:46;100464.78;;;16.31;52.49
29383;BME280;16365;51.598;7.668;2022-09-17T02:57:19;100467.50;;;16.27;52.72
29383;BME280;16365;51.598;7.668;2022-09-17T03:00:06;100469.09;;;16.28;52.77
29383;BME280;16365;51.598;7.668;2022-09-17T03:02:42;100474.69;;;16.28;52.64
29383;BME280;16365;51.598;7.668;2022-09-17T03:05:11;100479.94;;;16.30;52.31
29383;BME280;16365;51.598;7.668;2022-09-17T03:07:39;100471.91;;;16.28;52.37
29383;BME280;16365;51.598;7.668;2022-09-17T03:10:05;100474.69;;;16.28;52.51
29383;BME280;16365;51.598;7.668;2022-09-17T03:12:34;100473.09;;;16.27;52.27
29383;BME280;16365;51.598;7.668;2022-09-17T03:15:01;100471.91;;;16.28;52.43
29383;BME280;16365;51.598;7.668;2022-09-17T03:17:28;100473.50;;;16.29;53.06
29383;BME280;16365;51.598;7.668;2022-09-17T03:19:55;100481.56;;;16.31;52.46
29383;BME280;16365;51.598;7.668;2022-09-17T03:22:21;100475.97;;;16.31;52.50
29383;BME280;16365;51.598;7.668;2022-09-17T03:24:48;100471.59;;;16.33;52.45
29383;BME280;16365;51.598;7.668;2022-09-17T03:27:14;100476.03;;;16.34;52.40
29383;BME280;16365;51.598;7.668;2022-09-17T03:29:41;100472.03;;;16.35;52.63
29383;BME280;16365;51.598;7.668;2022-09-17T03:32:07;100483.66;;;16.37;52.63
29383;BME280;16365;51.598;7.668;2022-09-17T03:34:33;100477.25;;;16.37;52.35
29383;BME280;16365;51.598;7.668;2022-09-17T03:37:00;100471.66;;;16.37;52.60
29383;BME280;16365;51.598;7.668;2022-09-17T03:39:27;100478.88;;;16.38;52.47
29383;BME280;16365;51.598;7.668;2022-09-17T03:41:54;100476.88;;;16.38;52.40
29383;BME280;16365;51.598;7.668;2022-09-17T03:44:20;100486.91;;;16.39;52.24
29383;BME280;16365;51.598;7.668;2022-09-17T03:46:49;100487.25;;;16.38;52.37
29383;BME280;16365;51.598;7.668;2022-09-17T03:49:15;100489.72;;;16.39;52.28
29383;BME280;16365;51.598;7.668;2022-09-17T03:51:42;100486.06;;;16.39;52.21
29383;BME280;16365;51.598;7.668;2022-09-17T03:54:08;100488.88;;;16.39;52.17
29383;BME280;16365;51.598;7.668;2022-09-17T03:56:34;100494.13;;;16.40;52.24
29383;BME280;16365;51.598;7.668;2022-09-17T03:59:01;100491.31;;;16.40;52.26
29383;BME280;16365;51.598;7.668;2022-09-17T04:01:28;100489.72;;;16.39;52.17
29383;BME280;16365;51.598;7.668;2022-09-17T04:03:54;100490.50;;;16.40;51.95
29383;BME280;16365;51.598;7.668;2022-09-17T04:06:21;100495.66;;;16.38;51.93
29383;BME280;16365;51.598;7.668;2022-09-17T04:08:47;100502.44;;;16.37;51.97
29383;BME280;16365;51.598;7.668;2022-09-17T04:11:13;100493.63;;;16.35;51.87
29383;BME280;16365;51.598;7.668;2022-09-17T04:13:40;100494.44;;;16.35;52.14
29383;BME280;16365;51.598;7.668;2022-09-17T04:16:06;100500.03;;;16.35;52.24
29383;BME280;16365;51.598;7.668;2022-09-17T04:18:33;100493.63;;;16.35;52.22
29383;BME280;16365;51.598;7.668;2022-09-17T04:20:59;100490.03;;;16.34;52.26
29383;BME280;16365;51.598;7.668;2022-09-17T04:23:26;100501.22;;;16.34;52.44
29383;BME280;16365;51.598;7.668;2022-09-17T04:25:52;100504.81;;;16.35;52.22
29383;BME280;16365;51.598;7.668;2022-09-17T04:28:18;100505.63;;;16.35;51.96
29383;BME280;16365;51.598;7.668;2022-09-17T04:30:46;100502.00;;;16.35;52.26
29383;BME280;16365;51.598;7.668;2022-09-17T04:33:13;100501.63;;;16.36;51.99
29383;BME280;16365;51.598;7.668;2022-09-17T04:35:39;100499.63;;;16.37;51.80
29383;BME280;16365;51.598;7.668;2022-09-17T04:38:05;100499.63;;;16.37;51.71
29383;BME280;16365;51.598;7.668;2022-09-17T04:40:32;100501.25;;;16.38;52.14
29383;BME280;16365;51.598;7.668;2022-09-17T04:42:58;100514.06;;;16.39;51.84
29383;BME280;16365;51.598;7.668;2022-09-17T04:45:29;100508.84;;;16.37;52.15
29383;BME280;16365;51.598;7.668;2022-09-17T04:47:55;100504.84;;;16.38;52.11
29383;BME280;16365;51.598;7.668;2022-09-17T04:50:22;100510.09;;;16.40;52.17
29383;BME280;16365;51.598;7.668;2022-09-17T04:52:48;100506.50;;;16.39;51.87
29383;BME280;16365;51.598;7.668;2022-09-17T04:55:15;100512.09;;;16.39;51.94
29383;BME280;16365;51.598;7.668;2022-09-17T04:57:50;100512.81;;;16.36;51.95
29383;BME280;16365;51.598;7.668;2022-09-17T05:00:17;100503.25;;;16.37;51.99
29383;BME280;16365;51.598;7.668;2022-09-17T05:02:45;100507.22;;;16.36;52.12
29383;BME280;16365;51.598;7.668;2022-09-17T05:05:13;100519.59;;;16.35;52.07
29383;BME280;16365;51.598;7.668;2022-09-17T05:07:40;100512.41;;;16.34;51.78
29383;BME280;16365;51.598;7.668;2022-09-17T05:10:08;100513.56;;;16.33;51.93
29383;BME280;16365;51.598;7.668;2022-09-17T05:12:35;100511.56;;;16.34;52.06
29383;BME280;16365;51.598;7.668;2022-09-17T05:15:02;100520.78;;;16.34;52.10
29383;BME280;16365;51.598;7.668;2022-09-17T05:17:28;100529.19;;;16.34;52.08
29383;BME280;16365;51.598;7.668;2022-09-17T05:19:55;100529.63;;;16.36;51.94
29383;BME280;16365;51.598;7.668;2022-09-17T05:22:21;100527.19;;;16.35;52.11
29383;BME280;16365;51.598;7.668;2022-09-17T05:24:47;100529.63;;;16.36;52.05
29383;BME280;16365;51.598;7.668;2022-09-17T05:27:14;100541.19;;;16.35;51.84
29383;BME280;16365;51.598;7.668;2022-09-17T05:29:40;100531.22;;;16.37;51.68
29383;BME280;16365;51.598;7.668;2022-09-17T05:32:06;100529.63;;;16.36;51.74
29383;BME280;16365;51.598;7.668;2022-09-17T05:34:33;100529.22;;;16.38;51.62
29383;BME280;16365;51.598;7.668;2022-09-17T05:36:59;100532.41;;;16.36;51.99
29383;BME280;16365;51.598;7.668;2022-09-17T05:39:25;100529.63;;;16.36;51.67
29383;BME280;16365;51.598;7.668;2022-09-17T05:41:53;100532.41;;;16.36;51.70
29383;BME280;16365;51.598;7.668;2022-09-17T05:44:20;100536.41;;;16.35;52.11
29383;BME280;16365;51.598;7.668;2022-09-17T05:46:46;100548.00;;;16.37;51.92
29383;BME280;16365;51.598;7.668;2022-09-17T05:49:13;100544.03;;;16.38;51.81
29383;BME280;16365;51.598;7.668;2022-09-17T05:51:41;100540.06;;;16.39;51.97
29383;BME280;16365;51.598;7.668;2022-09-17T05:54:07;100548.97;;;16.45;52.02
29383;BME280;16365;51.598;7.668;2022-09-17T05:56:34;100542.59;;;16.48;51.88
29383;BME280;16365;51.598;7.668;2022-09-17T05:59:00;100537.09;;;16.52;51.78
29383;BME280;16365;51.598;7.668;2022-09-17T06:01:27;100537.97;;;16.56;51.71
29383;BME280;16365;51.598;7.668;2022-09-17T06:03:53;100540.03;;;16.59;51.94
29383;BME280;16365;51.598;7.668;2022-09-17T06:06:19;100548.09;;;16.64;51.90
29383;BME280;16365;51.598;7.668;2022-09-17T06:08:46;100563.72;;;16.65;51.96
29383;BME280;16365;51.598;7.668;2022-09-17T06:11:12;100559.34;;;16.67;51.99
29383;BME280;16365;51.598;7.668;2022-09-17T06:13:39;100561.78;;;16.69;51.72
29383;BME280;16365;51.598;7.668;2022-09-17T06:16:05;100564.66;;;16.73;51.65
29383;BME280;16365;51.598;7.668;2022-09-17T06:18:31;100570.31;;;16.76;51.76
29383;BME280;16365;51.598;7.668;2022-09-17T06:21:00;100574.81;;;16.81;52.28
29383;BME280;16365;51.598;7.668;2022-09-17T06:23:30;100582.50;;;16.87;52.18
29383;BME280;16365;51.598;7.668;2022-09-17T06:25:58;100583.84;;;16.93;52.02
29383;BME280;16365;51.598;7.668;2022-09-17T06:28:26;100587.94;;;17.00;51.70
29383;BME280;16365;51.598;7.668;2022-09-17T06:30:53;100593.22;;;17.05;51.32
29383;BME280;16365;51.598;7.668;2022-09-17T06:33:20;100590.09;;;17.10;51.18
29383;BME280;16365;51.598;7.668;2022-09-17T06:35:47;100582.56;;;17.14;51.19
29383;BME280;16365;51.598;7.668;2022-09-17T06:38:13;100581.81;;;17.17;51.02
29383;BME280;16365;51.598;7.668;2022-09-17T06:40:39;100580.25;;;17.19;50.89
29383;BME280;16365;51.598;7.668;2022-09-17T06:43:06;100591.91;;;17.21;50.69
29383;BME280;16365;51.598;7.668;2022-09-17T06:45:32;100590.72;;;17.23;50.66
29383;BME280;16365;51.598;7.668;2022-09-17T06:48:02;100593.53;;;17.23;50.70
29383;BME280;16365;51.598;7.668;2022-09-17T06:50:29;100587.13;;;17.26;50.86
29383;BME280;16365;51.598;7.668;2022-09-17T06:52:56;100594.81;;;17.29;50.61
29383;BME280;16365;51.598;7.668;2022-09-17T06:55:22;100597.22;;;17.30;50.69
29383;BME280;16365;51.598;7.668;2022-09-17T06:57:49;100589.25;;;17.32;50.62
29383;BME280;16365;51.598;7.668;2022-09-17T07:00:15;100589.69;;;17.34;50.21
29383;BME280;16365;51.598;7.668;2022-09-17T07:02:41;100593.28;;;17.35;49.96
29383;BME280;16365;51.598;7.668;2022-09-17T07:05:08;100590.88;;;17.33;49.55
29383;BME280;16365;51.598;7.668;2022-09-17T07:07:34;100599.28;;;17.33;50.10
29383;BME280;16365;51.598;7.668;2022-09-17T07:10:01;100596.06;;;17.31;49.65
29383;BME280;16365;51.598;7.668;2022-09-17T07:12:28;100594.88;;;17.32;50.02
29383;BME280;16365;51.598;7.668;2022-09-17T07:14:54;100599.66;;;17.32;49.70
29383;BME280;16365;51.598;7.668;2022-09-17T07:17:20;100596.06;;;17.31;49.99
29383;BME280;16365;51.598;7.668;2022-09-17T07:19:46;100591.69;;;17.34;49.83
29383;BME280;16365;51.598;7.668;2022-09-17T07:22:13;100594.94;;;17.36;49.94
29383;BME280;16365;51.598;7.668;2022-09-17T07:24:39;100592.63;;;17.41;50.05
29383;BME280;16365;51.598;7.668;2022-09-17T07:27:05;100594.28;;;17.46;50.35
29383;BME280;16365;51.598;7.668;2022-09-17T07:29:32;100590.75;;;17.53;50.88
29383;BME280;16365;51.598;7.668;2022-09-17T07:31:58;100594.56;;;17.67;51.55
29383;BME280;16365;51.598;7.668;2022-09-17T07:34:24;100596.09;;;17.88;51.22
29383;BME280;16365;51.598;7.668;2022-09-17T07:36:53;100592.78;;;18.12;51.61
29383;BME280;16365;51.598;7.668;2022-09-17T07:39:20;100593.91;;;18.41;52.19
29383;BME280;16365;51.598;7.668;2022-09-17T07:41:46;100590.69;;;18.73;51.92
29383;BME280;16365;51.598;7.668;2022-09-17T07:44:12;100587.78;;;19.07;51.13
29383;BME280;16365;51.598;7.668;2022-09-17T07:46:39;100596.44;;;19.39;50.36
29383;BME280;16365;51.598;7.668;2022-09-17T07:49:05;100599.06;;;19.65;49.82
29383;BME280;16365;51.598;7.668;2022-09-17T07:51:31;100590.75;;;19.90;49.92
29383;BME280;16365;51.598;7.668;2022-09-17T07:53:58;100594.88;;;20.14;48.57
29383;BME280;16365;51.598;7.668;2022-09-17T07:56:26;100591.72;;;20.30;47.31
29383;BME280;16365;51.598;7.668;2022-09-17T07:58:52;100601.38;;;20.40;46.94
29383;BME280;16365;51.598;7.668;2022-09-17T08:01:19;100604.22;;;20.43;46.11
29383;BME280;16365;51.598;7.668;2022-09-17T08:03:50;100603.81;;;20.41;45.79
29383;BME280;16365;51.598;7.668;2022-09-17T08:06:23;100604.63;;;20.38;44.93
29383;BME280;16365;51.598;7.668;2022-09-17T08:08:55;100596.94;;;20.35;45.01
29383;BME280;16365;51.598;7.668;2022-09-17T08:11:24;100594.53;;;20.26;44.62
29383;BME280;16365;51.598;7.668;2022-09-17T08:14:13;100594.50;;;20.19;44.74
29383;BME280;16365;51.598;7.668;2022-09-17T08:16:39;100595.31;;;20.16;45.76
29383;BME280;16365;51.598;7.668;2022-09-17T08:19:06;100594.88;;;20.14;44.72
29383;BME280;16365;51.598;7.668;2022-09-17T08:21:34;100590.44;;;20.10;44.72
29383;BME280;16365;51.598;7.668;2022-09-17T08:24:00;100588.41;;;20.03;44.34
29383;BME280;16365;51.598;7.668;2022-09-17T08:26:27;100592.41;;;19.98;44.49
29383;BME280;16365;51.598;7.668;2022-09-17T08:28:54;100591.16;;;19.96;44.14
29383;BME280;16365;51.598;7.668;2022-09-17T08:31:23;100587.53;;;19.92;44.35
29383;BME280;16365;51.598;7.668;2022-09-17T08:33:50;100591.16;;;19.89;44.36
29383;BME280;16365;51.598;7.668;2022-09-17T08:36:17;100595.97;;;19.88;44.01
29383;BME280;16365;51.598;7.668;2022-09-17T08:38:44;100583.50;;;19.86;44.38
29383;BME280;16365;51.598;7.668;2022-09-17T08:44:08;100587.91;;;19.87;44.30
29383;BME280;16365;51.598;7.668;2022-09-17T08:46:47;100594.75;;;19.86;44.29
29383;BME280;16365;51.598;7.668;2022-09-17T08:49:31;100588.38;;;19.92;44.12
29383;BME280;16365;51.598;7.668;2022-09-17T08:54:40;100581.16;;;20.06;43.94
29383;BME280;16365;51.598;7.668;2022-09-17T09:00:10;100596.09;;;20.13;43.32
29383;BME280;16365;51.598;7.668;2022-09-17T09:05:17;100605.78;;;20.26;43.23
29383;BME280;16365;51.598;7.668;2022-09-17T09:07:50;100593.72;;;20.26;42.46
29383;BME280;16365;51.598;7.668;2022-09-17T09:10:21;100582.47;;;20.26;42.68
29383;BME280;16365;51.598;7.668;2022-09-17T09:12:50;100602.16;;;20.29;42.96
29383;BME280;16365;51.598;7.668;2022-09-17T09:15:26;100590.91;;;20.33;42.51
29383;BME280;16365;51.598;7.668;2022-09-17T09:18:00;100597.78;;;20.39;42.10
29383;BME280;16365;51.598;7.668;2022-09-17T09:23:30;100593.41;;;20.49;41.64
29383;BME280;16365;51.598;7.668;2022-09-17T09:26:15;100597.84;;;20.53;41.65
29383;BME280;16365;51.598;7.668;2022-09-17T09:31:54;100596.66;;;20.69;41.35
29383;BME280;16365;51.598;7.668;2022-09-17T09:34:21;100605.13;;;20.76;41.96
29383;BME280;16365;51.598;7.668;2022-09-17T09:36:50;100597.88;;;20.78;41.24
29383;BME280;16365;51.598;7.668;2022-09-17T09:39:20;100602.34;;;20.79;40.84
29383;BME280;16365;51.598;7.668;2022-09-17T09:41:55;100590.66;;;20.81;40.74
29383;BME280;16365;51.598;7.668;2022-09-17T09:44:25;100599.91;;;20.85;41.39
29383;BME280;16365;51.598;7.668;2022-09-17T09:52:44;100597.91;;;20.96;40.32
29383;BME280;16365;51.598;7.668;2022-09-17T09:55:33;100599.91;;;21.03;41.69
29383;BME280;16365;51.598;7.668;2022-09-17T09:58:11;100593.47;;;21.06;39.43
29383;BME280;16365;51.598;7.668;2022-09-17T10:00:42;100588.66;;;21.07;40.19
29383;BME280;16365;51.598;7.668;2022-09-17T10:03:19;100581.00;;;21.03;39.58
29383;BME280;16365;51.598;7.668;2022-09-17T10:05:56;100582.19;;;21.06;39.76
29383;BME280;16365;51.598;7.668;2022-09-17T10:08:24;100582.59;;;21.15;40.27
29383;BME280;16365;51.598;7.668;2022-09-17T10:11:01;100578.56;;;21.20;39.38
29383;BME280;16365;51.598;7.668;2022-09-17T10:13:33;100580.56;;;21.26;38.16
29383;BME280;16365;51.598;7.668;2022-09-17T10:16:16;100576.16;;;21.36;39.20
29383;BME280;16365;51.598;7.668;2022-09-17T10:18:47;100570.13;;;21.45;38.72
29383;BME280;16365;51.598;7.668;2022-09-17T10:21:20;100569.31;;;21.48;37.95
29383;BME280;16365;51.598;7.668;2022-09-17T10:23:48;100569.69;;;21.50;38.19
29383;BME280;16365;51.598;7.668;2022-09-17T10:26:33;100561.25;;;21.43;37.97
29383;BME280;16365;51.598;7.668;2022-09-17T10:29:11;100570.94;;;21.38;37.69
29383;BME280;16365;51.598;7.668;2022-09-17T10:31:46;100571.31;;;21.37;37.97
29383;BME280;16365;51.598;7.668;2022-09-17T10:34:19;100578.97;;;21.36;38.07
29383;BME280;16365;51.598;7.668;2022-09-17T10:36:47;100574.97;;;21.37;38.74
29383;BME280;16365;51.598;7.668;2022-09-17T10:42:05;100570.13;;;21.34;39.75
29383;BME280;16365;51.598;7.668;2022-09-17T10:44:49;100571.34;;;21.33;38.44
29383;BME280;16365;51.598;7.668;2022-09-17T10:47:30;100567.31;;;21.30;38.00
29383;BME280;16365;51.598;7.668;2022-09-17T10:50:20;100566.09;;;21.28;37.59
29383;BME280;16365;51.598;7.668;2022-09-17T10:52:50;100562.47;;;21.31;38.15
29383;BME280;16365;51.598;7.668;2022-09-17T11:01:46;100587.44;;;21.29;39.31
29383;BME280;16365;51.598;7.668;2022-09-17T11:17:38;100576.97;;;21.04;39.79
29383;BME280;16365;51.598;7.668;2022-09-17T11:26:11;100566.91;;;21.00;39.49
29383;BME280;16365;51.598;7.668;2022-09-17T11:31:36;100570.94;;;20.95;39.24
29383;BME280;16365;51.598;7.668;2022-09-17T11:39:54;100569.72;;;20.89;39.13
29383;BME280;16365;51.598;7.668;2022-09-17T11:45:21;100552.00;;;20.92;39.11
29383;BME280;16365;51.598;7.668;2022-09-17T11:48:11;100569.34;;;20.94;39.17
29383;BME280;16365;51.598;7.668;2022-09-17T11:55:55;100551.59;;;21.19;39.50
29383;BME280;16365;51.598;7.668;2022-09-17T12:01:14;100554.00;;;21.20;39.12
29383;BME280;16365;51.598;7.668;2022-09-17T12:03:50;100559.63;;;21.17;39.01
29383;BME280;16365;51.598;7.668;2022-09-17T12:06:31;100561.69;;;21.09;39.69
29383;BME280;16365;51.598;7.668;2022-09-17T12:09:11;100567.72;;;21.00;39.05
29383;BME280;16365;51.598;7.668;2022-09-17T12:14:18;100562.06;;;20.86;38.97
29383;BME280;16365;51.598;7.668;2022-09-17T12:16:49;100567.31;;;20.81;39.47
29383;BME280;16365;51.598;7.668;2022-09-17T12:19:43;100565.28;;;20.74;39.17
29383;BME280;16365;51.598;7.668;2022-09-17T12:22:20;100559.66;;;20.70;39.05
29383;BME280;16365;51.598;7.668;2022-09-17T12:24:49;100559.66;;;20.70;39.56
29383;BME280;16365;51.598;7.668;2022-09-17T12:32:56;100558.44;;;20.68;39.48
29383;BME280;16365;51.598;7.668;2022-09-17T12:41:15;100547.56;;;20.66;39.97
29383;BME280;16365;51.598;7.668;2022-09-17T12:58:11;100516.16;;;20.93;40.41
29383;BME280;16365;51.598;7.668;2022-09-17T13:00:54;100525.81;;;21.02;40.34
29383;BME280;16365;51.598;7.668;2022-09-17T13:11:54;100550.41;;;20.84;41.56
29383;BME280;16365;51.598;7.668;2022-09-17T13:14:59;100566.06;;;20.57;40.80
29383;BME280;16365;51.598;7.668;2022-09-17T13:20:47;100549.81;;;20.07;42.19
29383;BME280;16365;51.598;7.668;2022-09-17T13:23:38;100546.13;;;19.85;42.74
29383;BME280;16365;51.598;7.668;2022-09-17T13:26:06;100564.16;;;19.73;42.57
29383;BME280;16365;51.598;7.668;2022-09-17T13:28:45;100582.97;;;19.62;43.10
29383;BME280;16365;51.598;7.668;2022-09-17T13:31:44;100576.88;;;19.57;43.14
29383;BME280;16365;51.598;7.668;2022-09-17T13:36:51;100578.44;;;19.50;43.08
29383;BME280;16365;51.598;7.668;2022-09-17T13:39:45;100585.28;;;19.49;43.06
29383;BME280;16365;51.598;7.668;2022-09-17T13:42:19;100583.28;;;19.50;43.21
29383;BME280;16365;51.598;7.668;2022-09-17T13:45:17;100576.44;;;19.51;43.24
29383;BME280;16365;51.598;7.668;2022-09-17T13:47:51;100566.84;;;19.56;43.25
29383;BME280;16365;51.598;7.668;2022-09-17T13:50:33;100575.28;;;19.59;43.33
29383;BME280;16365;51.598;7.668;2022-09-17T13:55:46;100566.13;;;19.69;41.96
29383;BME280;16365;51.598;7.668;2022-09-17T14:01:11;100578.16;;;19.66;42.29
29383;BME280;16365;51.598;7.668;2022-09-17T14:11:36;100560.84;;;19.61;42.74
29383;BME280;16365;51.598;7.668;2022-09-17T14:21:58;100576.97;;;19.64;43.17
29383;BME280;16365;51.598;7.668;2022-09-17T14:30:21;100567.78;;;19.81;42.73
29383;BME280;16365;51.598;7.668;2022-09-17T14:35:39;100580.28;;;19.91;42.79
29383;BME280;16365;51.598;7.668;2022-09-17T14:38:31;100569.88;;;19.95;42.73
29383;BME280;16365;51.598;7.668;2022-09-17T14:43:39;100573.53;;;20.02;42.12
29383;BME280;16365;51.598;7.668;2022-09-17T14:46:14;100570.72;;;20.02;43.26
29383;BME280;16365;51.598;7.668;2022-09-17T14:48:43;100573.91;;;20.01;42.97
29383;BME280;16365;51.598;7.668;2022-09-17T14:54:05;100542.88;;;19.87;43.18
29383;BME280;16365;51.598;7.668;2022-09-17T14:56:34;100563.72;;;19.71;43.14
29383;BME280;16365;51.598;7.668;2022-09-17T14:59:01;100562.81;;;19.57;43.39
29383;BME280;16365;51.598;7.668;2022-09-17T15:01:29;100575.19;;;19.41;43.23
29383;BME280;16365;51.598;7.668;2022-09-17T15:06:40;100571.75;;;19.11;43.40
29383;BME280;16365;51.598;7.668;2022-09-17T15:09:24;100579.22;;;18.92;44.33
29383;BME280;16365;51.598;7.668;2022-09-17T15:11:53;100569.91;;;18.85;44.36
29383;BME280;16365;51.598;7.668;2022-09-17T15:14:22;100579.50;;;18.77;44.53
29383;BME280;16365;51.598;7.668;2022-09-17T15:16:53;100572.59;;;18.70;44.71
29383;BME280;16365;51.598;7.668;2022-09-17T15:19:32;100568.50;;;18.64;44.87
29383;BME280;16365;51.598;7.668;2022-09-17T15:22:06;100574.50;;;18.63;44.82
29383;BME280;16365;51.598;7.668;2022-09-17T15:27:28;100569.25;;;18.58;43.53
29383;BME280;16365;51.598;7.668;2022-09-17T15:30:07;100572.00;;;18.54;43.99
29383;BME280;16365;51.598;7.668;2022-09-17T15:32:35;100580.44;;;18.54;43.89
29383;BME280;16365;51.598;7.668;2022-09-17T15:43:05;100588.06;;;18.54;44.58
29383;BME280;16365;51.598;7.668;2022-09-17T15:45:39;100586.09;;;18.61;44.50
29383;BME280;16365;51.598;7.668;2022-09-17T15:50:59;100587.38;;;18.67;44.53
29383;BME280;16365;51.598;7.668;2022-09-17T15:53:28;100586.25;;;18.72;44.54
29383;BME280;16365;51.598;7.668;2022-09-17T15:56:07;100591.09;;;18.75;44.59
29383;BME280;16365;51.598;7.668;2022-09-17T16:08:56;100596.03;;;18.89;44.51
29383;BME280;16365;51.598;7.668;2022-09-17T16:11:33;100590.84;;;18.91;44.42
29383;BME280;16365;51.598;7.668;2022-09-17T16:14:00;100597.28;;;18.95;44.43
29383;BME280;16365;51.598;7.668;2022-09-17T16:16:32;100587.25;;;18.94;44.61
29383;BME280;16365;51.598;7.668;2022-09-17T16:18:59;100588.91;;;18.98;44.90
29383;BME280;16365;51.598;7.668;2022-09-17T16:21:26;100591.75;;;19.02;44.78
29383;BME280;16365;51.598;7.668;2022-09-17T16:23:52;100588.97;;;19.06;44.57
29383;BME280;16365;51.598;7.668;2022-09-17T16:26:20;100590.19;;;19.08;44.59
29383;BME280;16365;51.598;7.668;2022-09-17T16:28:48;100587.41;;;19.12;44.72
29383;BME280;16365;51.598;7.668;2022-09-17T16:31:15;100586.66;;;19.18;44.54
29383;BME280;16365;51.598;7.668;2022-09-17T16:33:41;100587.88;;;19.21;44.19
29383;BME280;16365;51.598;7.668;2022-09-17T16:36:08;100589.50;;;19.22;43.96